createdAt,value
2023-02-19T00:00:09.091Z,101873.84
2023-02-19T00:02:35.685Z,101880.06
2023-02-19T00:05:02.233Z,101873.84
2023-02-19T00:07:28.732Z,101871.47
2023-02-19T00:09:55.270Z,101874.19
2023-02-19T00:12:21.792Z,101874.97
2023-02-19T00:14:48.264Z,101880.84
2023-02-19T00:17:14.785Z,101873.06
2023-02-19T00:19:41.350Z,101880.38
2023-02-19T00:22:07.827Z,101885.47
2023-02-19T00:24:34.268Z,101878.47
2023-02-19T00:27:00.711Z,101885.03
2023-02-19T00:29:27.726Z,101884.59
2023-02-19T00:31:54.452Z,101887.69
2023-02-19T00:34:21.123Z,101896.25
2023-02-19T00:36:47.646Z,101891.63
2023-02-19T00:39:16.126Z,101878.81
2023-02-19T00:41:43.650Z,101890.81
2023-02-19T00:44:11.334Z,101887.69
2023-02-19T00:46:40.801Z,101897.84
2023-02-19T00:49:08.460Z,101894.34
2023-02-19T00:51:39.246Z,101897.84
2023-02-19T00:54:06.537Z,101892.41
2023-02-19T00:56:33.649Z,101880.75
2023-02-19T00:59:00.329Z,101890.81
2023-02-19T01:01:27.009Z,101886.53
2023-02-19T01:03:53.795Z,101894.69
2023-02-19T01:06:21.721Z,101905.53
2023-02-19T01:08:50.188Z,101897.41
2023-02-19T01:11:17.632Z,101904.75
2023-02-19T01:13:44.261Z,101908.69
2023-02-19T01:16:17.492Z,101915.63
2023-02-19T01:18:44.224Z,101919.00
2023-02-19T01:21:16.674Z,101908.59
2023-02-19T01:23:44.202Z,101923.31
2023-02-19T01:26:14.614Z,101919.00
2023-02-19T01:28:41.764Z,101920.94
2023-02-19T01:31:13.503Z,101917.44
2023-02-19T01:33:40.207Z,101924.81
2023-02-19T01:36:07.670Z,101920.88
2023-02-19T01:38:34.156Z,101920.88
2023-02-19T01:41:03.306Z,101920.41
2023-02-19T01:43:32.425Z,101915.78
2023-02-19T01:46:00.100Z,101923.47
2023-02-19T01:48:33.079Z,101925.75
2023-02-19T01:51:10.431Z,101920.66
2023-02-19T01:53:42.446Z,101926.78
2023-02-19T01:56:09.942Z,101929.84
2023-02-19T01:58:37.982Z,101927.13
2023-02-19T02:01:08.496Z,101919.75
2023-02-19T02:03:38.195Z,101918.19
2023-02-19T02:06:12.687Z,101919.69
2023-02-19T02:08:57.948Z,101918.91
2023-02-19T02:11:24.826Z,101933.59
2023-02-19T02:13:52.435Z,101928.16
2023-02-19T02:16:26.674Z,101928.16
2023-02-19T02:19:01.975Z,101933.16
2023-02-19T02:21:47.790Z,101936.22
2023-02-19T02:24:20.416Z,101929.97
2023-02-19T02:27:02.781Z,101933.50
2023-02-19T02:29:50.032Z,101937.34
2023-02-19T02:32:21.413Z,101938.03
2023-02-19T02:34:57.263Z,101932.63
2023-02-19T02:37:28.050Z,101934.19
2023-02-19T02:39:58.176Z,101935.31
2023-02-19T02:42:30.611Z,101944.59
2023-02-19T02:45:17.231Z,101948.44
2023-02-19T02:47:51.167Z,101939.53
2023-02-19T02:50:28.347Z,101944.94
2023-02-19T02:53:21.404Z,101941.78
2023-02-19T02:55:52.213Z,101948.00
2023-02-19T02:58:21.356Z,101947.56
2023-02-19T03:01:13.090Z,101945.63
2023-02-19T03:03:43.406Z,101953.44
2023-02-19T03:06:15.370Z,101953.09
2023-02-19T03:08:56.866Z,101957.25
2023-02-19T03:11:42.092Z,101954.56
2023-02-19T03:14:36.859Z,101958.09
2023-02-19T03:17:30.635Z,101965.78
2023-02-19T03:20:00.990Z,101960.78
2023-02-19T03:22:31.426Z,101968.13
2023-02-19T03:25:22.486Z,101960.69
2023-02-19T03:27:51.214Z,101971.19
2023-02-19T03:30:23.065Z,101968.50
2023-02-19T03:32:55.499Z,101967.69
2023-02-19T03:35:27.393Z,101975.41
2023-02-19T03:38:03.940Z,101983.53
2023-02-19T03:40:34.573Z,101974.25
2023-02-19T03:43:25.223Z,101977.75
2023-02-19T03:46:02.154Z,101979.34
2023-02-19T03:48:34.458Z,101979.34
2023-02-19T03:51:16.533Z,101987.81
2023-02-19T03:53:46.988Z,101990.53
2023-02-19T03:56:23.148Z,101992.47
2023-02-19T03:58:54.715Z,101997.91
2023-02-19T04:01:41.672Z,102000.50
2023-02-19T04:04:28.630Z,102007.06
2023-02-19T04:06:57.464Z,102004.00
2023-02-19T04:09:29.102Z,102007.06
2023-02-19T04:11:56.065Z,102013.97
2023-02-19T04:14:29.981Z,102014.75
2023-02-19T04:17:05.434Z,102022.13
2023-02-19T04:19:37.799Z,102029.44
2023-02-19T04:22:07.226Z,102037.94
2023-02-19T04:24:41.235Z,102039.84
2023-02-19T04:27:09.820Z,102035.56
2023-02-19T04:29:39.104Z,102036.03
2023-02-19T04:32:06.309Z,102040.66
2023-02-19T04:34:33.183Z,102044.94
2023-02-19T04:36:59.680Z,102038.72
2023-02-19T04:39:26.180Z,102050.38
2023-02-19T04:41:52.692Z,102052.63
2023-02-19T04:44:19.221Z,102062.38
2023-02-19T04:46:45.703Z,102063.16
2023-02-19T04:49:12.202Z,102075.94
2023-02-19T04:51:39.355Z,102074.81
2023-02-19T04:54:06.010Z,102081.00
2023-02-19T04:56:32.800Z,102086.81
2023-02-19T04:59:00.307Z,102087.91
2023-02-19T05:01:27.054Z,102098.78
2023-02-19T05:03:53.644Z,102091.78
2023-02-19T05:06:20.185Z,102092.56
2023-02-19T05:08:46.690Z,102096.84
2023-02-19T05:11:13.466Z,102102.28
2023-02-19T05:13:40.538Z,102099.56
2023-02-19T05:16:10.719Z,102097.22
2023-02-19T05:18:37.339Z,102111.56
2023-02-19T05:21:04.222Z,102106.81
2023-02-19T05:23:30.756Z,102117.31
2023-02-19T05:25:57.390Z,102110.31
2023-02-19T05:28:28.990Z,102111.78
2023-02-19T05:30:56.898Z,102111.78
2023-02-19T05:33:25.985Z,102118.78
2023-02-19T05:35:54.307Z,102121.19
2023-02-19T05:38:21.615Z,102126.16
2023-02-19T05:40:48.480Z,102117.22
2023-02-19T05:43:16.503Z,102119.94
2023-02-19T05:45:43.128Z,102121.06
2023-02-19T05:48:11.291Z,102119.16
2023-02-19T05:50:39.806Z,102123.75
2023-02-19T05:53:06.546Z,102119.47
2023-02-19T05:55:35.876Z,102122.19
2023-02-19T05:58:03.000Z,102126.84
2023-02-19T06:00:29.801Z,102135.75
2023-02-19T06:02:56.326Z,102140.03
2023-02-19T06:05:22.900Z,102135.31
2023-02-19T06:07:50.555Z,102141.84
2023-02-19T06:10:18.184Z,102141.06
2023-02-19T06:12:44.928Z,102137.56
2023-02-19T06:15:11.415Z,102143.00
2023-02-19T06:17:37.912Z,102153.06
2023-02-19T06:20:04.606Z,102156.56
2023-02-19T06:22:31.080Z,102170.44
2023-02-19T06:24:58.161Z,102172.38
2023-02-19T06:27:25.586Z,102178.94
2023-02-19T06:29:52.070Z,102179.97
2023-02-19T06:32:19.755Z,102184.56
2023-02-19T06:34:46.375Z,102188.44
2023-02-19T06:37:12.924Z,102179.16
2023-02-19T06:39:40.449Z,102185.72
2023-02-19T06:42:06.935Z,102190.00
2023-02-19T06:44:33.524Z,102194.19
2023-02-19T06:47:00.004Z,102195.78
2023-02-19T06:49:26.559Z,102201.53
2023-02-19T06:51:53.097Z,102203.47
2023-02-19T06:54:19.611Z,102206.81
2023-02-19T06:56:47.136Z,102208.28
2023-02-19T06:59:18.538Z,102209.44
2023-02-19T07:01:46.211Z,102211.00
2023-02-19T07:04:12.993Z,102212.25
2023-02-19T07:06:40.106Z,102219.94
2023-02-19T07:09:08.377Z,102224.25
2023-02-19T07:11:37.531Z,102238.91
2023-02-19T07:14:07.693Z,102235.75
2023-02-19T07:16:35.144Z,102239.28
2023-02-19T07:19:02.742Z,102252.84
2023-02-19T07:21:29.862Z,102250.59
2023-02-19T07:23:56.826Z,102260.97
2023-02-19T07:26:24.301Z,102263.22
2023-02-19T07:28:51.403Z,102263.69
2023-02-19T07:31:19.967Z,102276.44
2023-02-19T07:33:48.533Z,102272.28
2023-02-19T07:36:17.721Z,102276.25
2023-02-19T07:38:44.942Z,102289.47
2023-02-19T07:41:13.335Z,102284.03
2023-02-19T07:43:41.562Z,102281.31
2023-02-19T07:46:11.163Z,102283.72
2023-02-19T07:48:39.401Z,102281.47
2023-02-19T07:51:08.083Z,102288.81
2023-02-19T07:53:35.624Z,102292.78
2023-02-19T07:56:04.800Z,102300.13
2023-02-19T07:58:32.839Z,102302.06
2023-02-19T08:01:07.707Z,102310.97
2023-02-19T08:03:34.415Z,102314.47
2023-02-19T08:06:00.957Z,102307.47
2023-02-19T08:08:27.513Z,102316.41
2023-02-19T08:11:13.691Z,102310.97
2023-02-19T08:13:41.315Z,102318.78
2023-02-19T08:16:18.368Z,102316.88
2023-02-19T08:18:48.915Z,102321.94
2023-02-19T08:21:18.429Z,102327.84
2023-02-19T08:23:46.440Z,102338.06
2023-02-19T08:26:13.397Z,102347.31
2023-02-19T08:28:40.363Z,102347.97
2023-02-19T08:31:08.506Z,102351.81
2023-02-19T08:33:35.412Z,102360.41
2023-02-19T08:36:04.909Z,102363.78
2023-02-19T08:38:34.734Z,102361.41
2023-02-19T08:41:06.148Z,102361.75
2023-02-19T08:43:33.301Z,102364.56
2023-02-19T08:45:59.987Z,102372.50
2023-02-19T08:48:27.623Z,102372.66
2023-02-19T08:51:08.451Z,102378.09
2023-02-19T08:53:38.319Z,102374.13
2023-02-19T08:56:06.385Z,102378.28
2023-02-19T08:58:33.630Z,102370.94
2023-02-19T09:01:00.205Z,102374.44
2023-02-19T09:03:26.758Z,102379.53
2023-02-19T09:05:54.351Z,102379.22
2023-02-19T09:08:21.135Z,102367.38
2023-02-19T09:10:58.090Z,102371.59
2023-02-19T09:13:24.624Z,102377.47
2023-02-19T09:15:51.221Z,102390.72
2023-02-19T09:18:18.810Z,102400.13
2023-02-19T09:20:45.338Z,102397.88
2023-02-19T09:23:11.978Z,102393.91
2023-02-19T09:25:38.546Z,102400.44
2023-02-19T09:28:05.060Z,102403.16
2023-02-19T09:30:31.720Z,102410.78
2023-02-19T09:32:58.250Z,102425.94
2023-02-19T09:35:24.756Z,102434.53
2023-02-19T09:37:51.303Z,102434.22
2023-02-19T09:40:21.563Z,102444.59
2023-02-19T09:42:51.888Z,102454.34
2023-02-19T09:45:23.866Z,102458.97
2023-02-19T09:47:55.126Z,102462.16
2023-02-19T09:50:27.941Z,102470.19
2023-02-19T09:53:00.904Z,102477.06
2023-02-19T09:55:35.713Z,102472.28
2023-02-19T09:58:14.298Z,102482.69
2023-02-19T10:00:41.027Z,102488.09
2023-02-19T10:03:15.557Z,102484.91
2023-02-19T10:05:42.459Z,102495.78
2023-02-19T10:08:16.653Z,102510.41
2023-02-19T10:10:44.505Z,102520.88
2023-02-19T10:13:20.243Z,102517.81
2023-02-19T10:15:53.684Z,102526.75
2023-02-19T10:18:24.889Z,102527.88
2023-02-19T10:20:53.704Z,102531.84
2023-02-19T10:23:22.970Z,102536.16
2023-02-19T10:25:54.446Z,102538.72
2023-02-19T10:28:25.302Z,102552.59
2023-02-19T10:30:55.578Z,102550.88
2023-02-19T10:33:23.158Z,102564.44
2023-02-19T10:35:55.038Z,102558.75
2023-02-19T10:38:26.333Z,102559.53
2023-02-19T10:41:00.495Z,102566.69
2023-02-19T10:43:38.415Z,102562.88
2023-02-19T10:46:08.981Z,102560.63
2023-02-19T10:48:40.911Z,102560.28
2023-02-19T10:51:11.009Z,102566.34
2023-02-19T10:53:46.015Z,102571.09
2023-02-19T10:56:16.592Z,102562.16
2023-02-19T10:58:45.949Z,102567.47
2023-02-19T11:01:22.433Z,102562.81
2023-02-19T11:03:51.500Z,102555.00
2023-02-19T11:06:21.647Z,102544.16
2023-02-19T11:08:53.338Z,102541.28
2023-02-19T11:11:29.655Z,102557.25
2023-02-19T11:13:58.778Z,102561.09
2023-02-19T11:16:39.789Z,102568.41
2023-02-19T11:19:06.719Z,102573.06
2023-02-19T11:21:33.526Z,102576.56
2023-02-19T11:24:03.857Z,102566.69
2023-02-19T11:26:38.931Z,102573.44
2023-02-19T11:29:20.717Z,102579.66
2023-02-19T11:31:47.383Z,102575.97
2023-02-19T11:34:14.876Z,102576.63
2023-02-19T11:36:42.324Z,102575.81
2023-02-19T11:39:10.707Z,102580.75
2023-02-19T11:41:44.589Z,102590.19
2023-02-19T11:44:14.310Z,102585.41
2023-02-19T11:46:59.479Z,102591.47
2023-02-19T11:49:48.984Z,102587.13
2023-02-19T11:52:29.646Z,102582.19
2023-02-19T11:55:03.647Z,102576.75
2023-02-19T11:57:47.395Z,102568.47
2023-02-19T12:00:28.589Z,102579.00
2023-02-19T12:03:25.366Z,102575.69
2023-02-19T12:06:05.047Z,102581.72
2023-02-19T12:09:03.816Z,102578.78
2023-02-19T12:11:55.574Z,102593.16
2023-02-19T12:14:41.713Z,102592.22
2023-02-19T12:17:35.449Z,102597.00
2023-02-19T12:20:09.956Z,102605.97
2023-02-19T12:22:46.863Z,102601.66
2023-02-19T12:25:19.856Z,102601.16
2023-02-19T12:28:09.562Z,102602.13
2023-02-19T12:30:57.465Z,102590.31
2023-02-19T12:34:01.659Z,102590.31
2023-02-19T12:36:34.882Z,102604.53
2023-02-19T12:39:13.955Z,102617.59
2023-02-19T12:41:49.227Z,102619.84
2023-02-19T12:44:28.987Z,102609.00
2023-02-19T12:47:01.406Z,102618.56
2023-02-19T12:49:35.894Z,102612.16
2023-02-19T12:52:09.805Z,102628.13
2023-02-19T12:54:43.337Z,102631.63
2023-02-19T12:57:21.008Z,102631.63
2023-02-19T13:00:03.659Z,102638.47
2023-02-19T13:02:40.444Z,102653.59
2023-02-19T13:05:18.611Z,102651.22
2023-02-19T13:07:46.020Z,102646.59
2023-02-19T13:10:27.325Z,102654.91
2023-02-19T13:12:56.630Z,102650.31
2023-02-19T13:15:36.710Z,102660.19
2023-02-19T13:18:12.605Z,102675.16
2023-02-19T13:20:43.043Z,102681.69
2023-02-19T13:23:39.284Z,102678.97
2023-02-19T13:26:18.209Z,102686.59
2023-02-19T13:29:01.135Z,102695.06
2023-02-19T13:31:45.339Z,102690.44
2023-02-19T13:34:12.870Z,102677.84
2023-02-19T13:36:39.777Z,102690.75
2023-02-19T13:39:06.805Z,102695.06
2023-02-19T13:41:40.438Z,102687.72
2023-02-19T13:44:17.782Z,102695.88
2023-02-19T13:46:48.102Z,102705.56
2023-02-19T13:49:31.723Z,102703.19
2023-02-19T13:52:01.793Z,102711.47
2023-02-19T13:54:30.447Z,102708.47
2023-02-19T13:57:23.349Z,102708.47
2023-02-19T13:59:51.596Z,102707.53
2023-02-19T14:02:22.093Z,102703.88
2023-02-19T14:04:55.994Z,102706.59
2023-02-19T14:07:36.022Z,102708.34
2023-02-19T14:10:05.258Z,102715.50
2023-02-19T14:12:34.195Z,102723.94
2023-02-19T14:15:36.834Z,102712.31
2023-02-19T14:18:03.452Z,102710.88
2023-02-19T14:20:42.059Z,102706.72
2023-02-19T14:23:17.308Z,102702.56
2023-02-19T14:25:45.707Z,102704.97
2023-02-19T14:28:16.822Z,102700.03
2023-02-19T14:31:01.608Z,102698.59
2023-02-19T14:33:38.238Z,102690.31
2023-02-19T14:36:23.318Z,102680.09
2023-02-19T14:38:56.572Z,102683.28
2023-02-19T14:41:24.674Z,102678.16
2023-02-19T14:43:53.932Z,102674.19
2023-02-19T14:46:30.619Z,102665.41
2023-02-19T14:49:04.428Z,102658.88
2023-02-19T14:51:34.920Z,102663.81
2023-02-19T14:54:13.543Z,102663.34
2023-02-19T14:56:46.808Z,102660.63
2023-02-19T14:59:14.187Z,102657.44
2023-02-19T15:01:40.847Z,102652.97
2023-02-19T15:04:23.329Z,102645.00
2023-02-19T15:06:53.029Z,102646.56
2023-02-19T15:09:21.895Z,102643.22
2023-02-19T15:11:49.087Z,102648.78
2023-02-19T15:14:23.644Z,102658.53
2023-02-19T15:16:57.692Z,102662.81
2023-02-19T15:19:25.306Z,102677.38
2023-02-19T15:21:53.220Z,102677.19
2023-02-19T15:24:19.953Z,102685.38
2023-02-19T15:26:51.025Z,102696.38
2023-02-19T15:29:21.421Z,102698.13
2023-02-19T15:31:51.026Z,102711.34
2023-02-19T15:34:26.136Z,102717.44
2023-02-19T15:37:00.275Z,102714.56
2023-02-19T15:39:36.855Z,102726.34
2023-02-19T15:42:06.211Z,102725.56
2023-02-19T15:45:01.199Z,102713.09
2023-02-19T15:47:43.882Z,102716.00
2023-02-19T15:50:18.388Z,102715.81
2023-02-19T15:52:51.203Z,102704.13
2023-02-19T15:55:40.241Z,102693.47
2023-02-19T15:58:17.777Z,102703.19
2023-02-19T16:00:55.220Z,102715.34
2023-02-19T16:03:24.893Z,102717.56
2023-02-19T16:06:16.229Z,102727.25
2023-02-19T16:08:48.727Z,102732.84
2023-02-19T16:11:22.171Z,102742.56
2023-02-19T16:13:49.629Z,102745.13
2023-02-19T16:16:25.730Z,102750.06
2023-02-19T16:18:55.922Z,102757.50
2023-02-19T16:21:26.181Z,102762.44
2023-02-19T16:24:02.935Z,102756.72
2023-02-19T16:26:31.917Z,102750.03
2023-02-19T16:28:59.429Z,102750.50
2023-02-19T16:31:26.313Z,102760.88
2023-02-19T16:33:57.712Z,102759.88
2023-02-19T16:36:34.904Z,102761.31
2023-02-19T16:39:17.265Z,102758.44
2023-02-19T16:41:49.688Z,102755.72
2023-02-19T16:44:26.257Z,102764.19
2023-02-19T16:46:55.643Z,102757.78
2023-02-19T16:49:23.736Z,102764.16
2023-02-19T16:51:50.945Z,102777.22
2023-02-19T16:54:17.430Z,102779.44
2023-02-19T16:56:44.138Z,102778.44
2023-02-19T16:59:10.665Z,102773.34
2023-02-19T17:01:38.292Z,102777.16
2023-02-19T17:04:07.848Z,102766.97
2023-02-19T17:06:38.346Z,102755.81
2023-02-19T17:09:09.255Z,102754.88
2023-02-19T17:11:37.267Z,102758.50
2023-02-19T17:14:03.992Z,102763.78
2023-02-19T17:16:39.546Z,102769.81
2023-02-19T17:19:17.073Z,102767.09
2023-02-19T17:21:45.223Z,102763.59
2023-02-19T17:24:11.991Z,102764.06
2023-02-19T17:26:38.679Z,102776.81
2023-02-19T17:29:07.252Z,102781.41
2023-02-19T17:31:34.323Z,102785.25
2023-02-19T17:34:01.719Z,102799.09
2023-02-19T17:36:31.169Z,102787.78
2023-02-19T17:39:03.496Z,102792.09
2023-02-19T17:41:30.392Z,102793.38
2023-02-19T17:43:56.940Z,102802.00
2023-02-19T17:46:26.755Z,102799.59
2023-02-19T17:48:54.119Z,102813.91
2023-02-19T17:51:21.688Z,102822.38
2023-02-19T17:53:48.223Z,102819.66
2023-02-19T17:56:23.468Z,102815.53
2023-02-19T17:58:50.152Z,102814.25
2023-02-19T18:01:16.861Z,102821.09
2023-02-19T18:03:44.047Z,102817.56
2023-02-19T18:06:11.165Z,102811.97
2023-02-19T18:08:37.837Z,102806.25
2023-02-19T18:11:07.257Z,102808.97
2023-02-19T18:13:33.873Z,102788.25
2023-02-19T18:16:00.349Z,102791.47
2023-02-19T18:18:28.968Z,102793.38
2023-02-19T18:20:55.643Z,102790.66
2023-02-19T18:23:22.925Z,102791.47
2023-02-19T18:25:49.660Z,102786.84
2023-02-19T18:28:16.550Z,102783.97
2023-02-19T18:30:43.228Z,102780.59
2023-02-19T18:33:15.187Z,102796.47
2023-02-19T18:35:43.922Z,102780.69
2023-02-19T18:38:10.484Z,102786.72
2023-02-19T18:40:37.139Z,102792.94
2023-02-19T18:43:05.323Z,102788.00
2023-02-19T18:45:35.298Z,102787.81
2023-02-19T18:48:02.031Z,102781.91
2023-02-19T18:50:28.678Z,102790.66
2023-02-19T18:52:55.358Z,102791.09
2023-02-19T18:58:12.243Z,102789.63
2023-02-19T19:00:38.782Z,102792.66
2023-02-19T19:03:06.447Z,102788.03
2023-02-19T19:05:33.070Z,102789.63
2023-02-19T19:08:01.752Z,102789.25
2023-02-19T19:10:29.021Z,102797.50
2023-02-19T19:12:55.726Z,102795.59
2023-02-19T19:15:23.678Z,102798.91
2023-02-19T19:17:50.797Z,102796.31
2023-02-19T19:20:19.856Z,102800.75
2023-02-19T19:22:50.475Z,102799.16
2023-02-19T19:25:17.372Z,102808.38
2023-02-19T19:27:43.942Z,102807.88
2023-02-19T19:30:10.812Z,102812.31
2023-02-19T19:32:38.176Z,102817.22
2023-02-19T19:35:05.341Z,102808.41
2023-02-19T19:37:32.156Z,102814.13
2023-02-19T19:39:58.795Z,102803.91
2023-02-19T19:42:25.536Z,102808.03
2023-02-19T19:44:52.293Z,102807.03
2023-02-19T19:47:19.381Z,102813.34
2023-02-19T19:49:47.353Z,102803.47
2023-02-19T19:52:14.353Z,102811.06
2023-02-19T19:54:47.591Z,102805.00
2023-02-19T19:57:15.977Z,102793.69
2023-02-19T19:59:42.616Z,102791.47
2023-02-19T20:02:15.513Z,102797.16
2023-02-19T20:07:33.903Z,102795.50
2023-02-19T20:10:00.471Z,102791.50
2023-02-19T20:12:27.005Z,102799.69
2023-02-19T20:14:53.663Z,102794.69
2023-02-19T20:17:20.273Z,102798.81
2023-02-19T20:19:46.927Z,102791.31
2023-02-19T20:22:13.525Z,102785.41
2023-02-19T20:24:40.165Z,102779.50
2023-02-19T20:27:07.114Z,102780.41
2023-02-19T20:29:34.885Z,102784.53
2023-02-19T20:32:03.650Z,102785.09
2023-02-19T20:34:31.183Z,102787.31
2023-02-19T20:36:58.264Z,102790.50
2023-02-19T20:39:29.116Z,102790.84
2023-02-19T20:41:56.328Z,102784.94
2023-02-19T20:44:22.986Z,102788.72
2023-02-19T20:46:52.499Z,102787.63
2023-02-19T20:49:21.961Z,102796.81
2023-02-19T20:51:53.456Z,102790.63
2023-02-19T20:54:22.080Z,102790.13
2023-02-19T20:56:50.643Z,102780.72
2023-02-19T20:59:18.736Z,102777.81
2023-02-19T21:01:50.542Z,102777.81
2023-02-19T21:04:18.316Z,102768.41
2023-02-19T21:06:45.723Z,102765.53
2023-02-19T21:09:12.502Z,102751.78
2023-02-19T21:11:39.710Z,102753.13
2023-02-19T21:14:06.261Z,102739.63
2023-02-19T21:16:33.170Z,102726.69
2023-02-19T21:19:00.159Z,102738.91
2023-02-19T21:21:26.816Z,102744.09
2023-02-19T21:23:55.104Z,102742.50
2023-02-19T21:26:22.293Z,102743.28
2023-02-19T21:28:51.684Z,102747.06
2023-02-19T21:31:18.774Z,102740.09
2023-02-19T21:33:45.457Z,102734.97
2023-02-19T21:36:12.640Z,102755.00
2023-02-19T21:38:39.320Z,102745.88
2023-02-19T21:41:05.905Z,102752.38
2023-02-19T21:43:32.526Z,102753.78
2023-02-19T21:45:59.252Z,102760.28
2023-02-19T21:48:25.850Z,102752.97
2023-02-19T21:50:52.447Z,102749.19
2023-02-19T21:53:19.413Z,102753.69
2023-02-19T21:55:57.798Z,102749.38
2023-02-19T21:58:30.459Z,102757.28
2023-02-19T22:00:58.270Z,102756.97
2023-02-19T22:03:32.420Z,102747.28
2023-02-19T22:06:02.365Z,102745.38
2023-02-19T22:08:28.978Z,102735.88
2023-02-19T22:10:55.574Z,102742.06
2023-02-19T22:13:22.242Z,102748.28
2023-02-19T22:15:48.910Z,102743.69
2023-02-19T22:18:15.442Z,102744.47
2023-02-19T22:20:42.256Z,102739.88
2023-02-19T22:23:08.981Z,102749.28
2023-02-19T22:25:35.512Z,102740.09
2023-02-19T22:28:04.045Z,102738.69
2023-02-19T22:30:30.645Z,102734.88
2023-02-19T22:32:57.208Z,102729.97
2023-02-19T22:35:23.766Z,102729.69
2023-02-19T22:37:50.309Z,102726.13
2023-02-19T22:40:17.107Z,102724.72
2023-02-19T22:42:44.895Z,102725.53
2023-02-19T22:45:12.514Z,102714.72
2023-02-19T22:47:40.110Z,102721.72
2023-02-19T22:50:07.848Z,102721.09
2023-02-19T22:52:34.395Z,102717.09
2023-02-19T22:55:01.247Z,102705.50
2023-02-19T22:57:28.714Z,102704.41
2023-02-19T22:59:55.293Z,102707.31
2023-02-19T23:02:21.859Z,102707.69
2023-02-19T23:04:48.506Z,102695.31
2023-02-19T23:07:15.083Z,102692.00
2023-02-19T23:09:41.641Z,102686.78
2023-02-19T23:12:11.251Z,102687.28
2023-02-19T23:14:38.258Z,102680.78
2023-02-19T23:17:04.825Z,102689.66
2023-02-19T23:19:31.522Z,102679.69
2023-02-19T23:21:58.561Z,102681.47
2023-02-19T23:24:25.145Z,102683.34
2023-02-19T23:26:52.835Z,102691.97
2023-02-19T23:29:25.155Z,102690.06
2023-02-19T23:31:52.636Z,102690.66
2023-02-19T23:34:19.567Z,102697.69
2023-02-19T23:36:49.293Z,102704.38
2023-02-19T23:39:18.372Z,102700.75
2023-02-19T23:41:49.228Z,102697.78
2023-02-19T23:44:16.623Z,102698.84
2023-02-19T23:46:43.276Z,102704.56
2023-02-19T23:49:10.546Z,102695.66
2023-02-19T23:51:37.482Z,102684.25
2023-02-19T23:54:04.788Z,102673.13
2023-02-19T23:56:31.335Z,102661.22
2023-02-19T23:58:57.934Z,102667.13
